Time;durP1;ratioP1;P1;durP2;ratioP2;P2;SDS_P1;SDS_P2;PMS_P1;PMS_P2;Temp;Humidity;BMP_temperature;BMP_pressure;BME280_temperature;BME280_humidity;BME280_pressure;Samples;Min_cycle;Max_cycle;Signal;HPM_P1;HPM_P2
2019/10/25 00:00:51;;;;;;;29.25;21.25;;;;;;;9.61;100;95365.47;;;;
2019/10/25 00:01:52;;;;;;;29.25;21.25;;;;;;;9.61;100;95365.47;;;;
2019/10/25 00:02:53;;;;;;;29.25;21.25;;;;;;;9.61;100;95365.47;;;;
2019/10/25 00:03:55;;;;;;;29.25;21.25;;;;;;;9.61;100;95365.47;;;;
2019/10/25 00:04:56;;;;;;;29.25;21.25;;;;;;;9.61;100;95365.47;;;;
2019/10/25 00:05:58;;;;;;;29.25;21.25;;;;;;;9.61;100;95365.47;;;;
2019/10/25 00:06:59;;;;;;;29.25;21.25;;;;;;;9.61;100;95365.47;;;;
2019/10/25 00:08:00;;;;;;;29.85;21.3;;;;;;;9.45;100;95364.33;;;;
2019/10/25 00:09:01;;;;;;;29.85;21.3;;;;;;;9.45;100;95364.33;;;;
2019/10/25 00:10:16;;;;;;;29.85;21.3;;;;;;;9.45;100;95364.33;;;;
2019/10/25 00:11:28;;;;;;;29.85;21.3;;;;;;;9.45;100;95364.33;;;;
2019/10/25 00:12:29;;;;;;;29.85;21.3;;;;;;;9.45;100;95364.33;;;;
2019/10/25 00:13:30;;;;;;;29.85;21.3;;;;;;;9.45;100;95364.33;;;;
2019/10/25 00:14:32;;;;;;;29.85;21.3;;;;;;;9.45;100;95364.33;;;;
2019/10/25 00:15:33;;;;;;;29.85;21.3;;;;;;;9.45;100;95364.33;;;;
2019/10/25 00:16:34;;;;;;;29.85;21.3;;;;;;;9.45;100;95364.33;;;;
2019/10/25 00:17:35;;;;;;;29.85;21.3;;;;;;;9.45;100;95364.33;;;;
2019/10/25 00:18:36;;;;;;;30.45;20.8;;;;;;;9.37;100;95382.98;;;;
2019/10/25 00:19:37;;;;;;;30.45;20.8;;;;;;;9.37;100;95382.98;;;;
2019/10/25 00:20:39;;;;;;;30.45;20.8;;;;;;;9.37;100;95382.98;;;;
2019/10/25 00:21:40;;;;;;;30.45;20.8;;;;;;;9.37;100;95382.98;;;;
2019/10/25 00:22:41;;;;;;;30.45;20.8;;;;;;;9.37;100;95382.98;;;;
2019/10/25 00:23:42;;;;;;;30.45;20.8;;;;;;;9.37;100;95382.98;;;;
2019/10/25 00:24:44;;;;;;;30.45;20.8;;;;;;;9.37;100;95382.98;;;;
2019/10/25 00:25:45;;;;;;;30.45;20.8;;;;;;;9.37;100;95382.98;;;;
2019/10/25 00:26:46;;;;;;;30.45;20.8;;;;;;;9.37;100;95382.98;;;;
2019/10/25 00:27:47;;;;;;;30.45;20.8;;;;;;;9.37;100;95382.98;;;;
2019/10/25 00:28:48;;;;;;;30.45;20.8;;;;;;;9.37;100;95382.98;;;;
2019/10/25 00:29:50;;;;;;;37.39999;25.5;;;;;;;9.34;100;95391.63;;;;
2019/10/25 00:30:51;;;;;;;37.39999;25.5;;;;;;;9.34;100;95391.63;;;;
2019/10/25 00:31:52;;;;;;;37.39999;25.5;;;;;;;9.34;100;95391.63;;;;
2019/10/25 00:32:53;;;;;;;37.39999;25.5;;;;;;;9.34;100;95391.63;;;;
2019/10/25 00:33:54;;;;;;;37.39999;25.5;;;;;;;9.34;100;95391.63;;;;
2019/10/25 00:34:55;;;;;;;37.39999;25.5;;;;;;;9.34;100;95391.63;;;;
2019/10/25 00:35:56;;;;;;;37.39999;25.5;;;;;;;9.34;100;95391.63;;;;
2019/10/25 00:36:59;;;;;;;37.39999;25.5;;;;;;;9.34;100;95391.63;;;;
2019/10/25 00:38:00;;;;;;;37.39999;25.5;;;;;;;9.34;100;95391.63;;;;
2019/10/25 00:39:02;;;;;;;37.39999;25.5;;;;;;;9.34;100;95391.63;;;;
2019/10/25 00:40:04;;;;;;;42.14999;29.05;;;;;;;9.5;100;95396.39;;;;
2019/10/25 00:41:05;;;;;;;42.14999;29.05;;;;;;;9.5;100;95396.39;;;;
2019/10/25 00:42:07;;;;;;;42.14999;29.05;;;;;;;9.5;100;95396.39;;;;
2019/10/25 00:43:08;;;;;;;42.14999;29.05;;;;;;;9.5;100;95396.39;;;;
2019/10/25 00:44:09;;;;;;;42.14999;29.05;;;;;;;9.5;100;95396.39;;;;
2019/10/25 00:45:10;;;;;;;42.14999;29.05;;;;;;;9.5;100;95396.39;;;;
2019/10/25 00:46:12;;;;;;;42.14999;29.05;;;;;;;9.5;100;95396.39;;;;
2019/10/25 00:47:15;;;;;;;42.14999;29.05;;;;;;;9.5;100;95396.39;;;;
2019/10/25 00:48:16;;;;;;;42.14999;29.05;;;;;;;9.5;100;95396.39;;;;
2019/10/25 00:49:17;;;;;;;42.14999;29.05;;;;;;;9.5;100;95396.39;;;;
2019/10/25 00:50:19;;;;;;;37.9;25.4;;;;;;;9.59;100;95404.08;;;;
2019/10/25 00:51:20;;;;;;;37.9;25.4;;;;;;;9.59;100;95404.08;;;;
2019/10/25 00:52:21;;;;;;;37.9;25.4;;;;;;;9.59;100;95404.08;;;;
2019/10/25 00:53:22;;;;;;;37.9;25.4;;;;;;;9.59;100;95404.08;;;;
2019/10/25 00:54:23;;;;;;;37.9;25.4;;;;;;;9.59;100;95404.08;;;;
2019/10/25 00:55:24;;;;;;;37.9;25.4;;;;;;;9.59;100;95404.08;;;;
2019/10/25 00:56:26;;;;;;;37.9;25.4;;;;;;;9.59;100;95404.08;;;;
2019/10/25 00:57:27;;;;;;;37.9;25.4;;;;;;;9.59;100;95404.08;;;;
2019/10/25 00:58:28;;;;;;;37.9;25.4;;;;;;;9.59;100;95404.08;;;;
2019/10/25 00:59:29;;;;;;;37.9;25.4;;;;;;;9.59;100;95404.08;;;;
2019/10/25 01:00:30;;;;;;;37.9;25.4;;;;;;;9.59;100;95404.08;;;;
2019/10/25 01:01:32;;;;;;;43.14999;27.75;;;;;;;9.83;100;95415.16;;;;
2019/10/25 01:02:33;;;;;;;43.14999;27.75;;;;;;;9.83;100;95415.16;;;;
2019/10/25 01:03:35;;;;;;;43.14999;27.75;;;;;;;9.83;100;95415.16;;;;
2019/10/25 01:04:38;;;;;;;43.14999;27.75;;;;;;;9.83;100;95415.16;;;;
2019/10/25 01:05:39;;;;;;;43.14999;27.75;;;;;;;9.83;100;95415.16;;;;
2019/10/25 01:06:40;;;;;;;43.14999;27.75;;;;;;;9.83;100;95415.16;;;;
2019/10/25 01:07:41;;;;;;;43.14999;27.75;;;;;;;9.83;100;95415.16;;;;
2019/10/25 01:08:43;;;;;;;43.14999;27.75;;;;;;;9.83;100;95415.16;;;;
2019/10/25 01:09:44;;;;;;;43.14999;27.75;;;;;;;9.83;100;95415.16;;;;
2019/10/25 01:10:45;;;;;;;43.14999;27.75;;;;;;;9.83;100;95415.16;;;;
2019/10/25 01:11:46;;;;;;;41.09999;27;;;;;;;10.09;100;95423.83;;;;
2019/10/25 01:12:48;;;;;;;41.09999;27;;;;;;;10.09;100;95423.83;;;;
2019/10/25 01:13:49;;;;;;;41.09999;27;;;;;;;10.09;100;95423.83;;;;
2019/10/25 01:14:50;;;;;;;41.09999;27;;;;;;;10.09;100;95423.83;;;;
2019/10/25 01:15:51;;;;;;;41.09999;27;;;;;;;10.09;100;95423.83;;;;
2019/10/25 01:16:52;;;;;;;41.09999;27;;;;;;;10.09;100;95423.83;;;;
2019/10/25 01:17:53;;;;;;;41.09999;27;;;;;;;10.09;100;95423.83;;;;
2019/10/25 01:18:55;;;;;;;41.09999;27;;;;;;;10.09;100;95423.83;;;;
2019/10/25 01:19:56;;;;;;;41.09999;27;;;;;;;10.09;100;95423.83;;;;
2019/10/25 01:21:00;;;;;;;41.09999;27;;;;;;;10.09;100;95423.83;;;;
2019/10/25 01:22:03;;;;;;;44.39999;28.6;;;;;;;10.4;100;95442.07;;;;
2019/10/25 01:23:04;;;;;;;44.39999;28.6;;;;;;;10.4;100;95442.07;;;;
2019/10/25 01:24:06;;;;;;;44.39999;28.6;;;;;;;10.4;100;95442.07;;;;
2019/10/25 01:25:07;;;;;;;44.39999;28.6;;;;;;;10.4;100;95442.07;;;;
2019/10/25 01:26:08;;;;;;;44.39999;28.6;;;;;;;10.4;100;95442.07;;;;
2019/10/25 01:27:10;;;;;;;44.39999;28.6;;;;;;;10.4;100;95442.07;;;;
2019/10/25 01:28:21;;;;;;;44.39999;28.6;;;;;;;10.4;100;95442.07;;;;
2019/10/25 01:29:22;;;;;;;44.39999;28.6;;;;;;;10.4;100;95442.07;;;;
2019/10/25 01:30:23;;;;;;;44.39999;28.6;;;;;;;10.4;100;95442.07;;;;
2019/10/25 01:31:24;;;;;;;44.39999;28.6;;;;;;;10.4;100;95442.07;;;;
2019/10/25 01:32:26;;;;;;;44.39999;28.6;;;;;;;10.4;100;95442.07;;;;
2019/10/25 01:33:27;;;;;;;40.15;27.85;;;;;;;10.61;100;95438.95;;;;
2019/10/25 01:34:28;;;;;;;40.15;27.85;;;;;;;10.61;100;95438.95;;;;
2019/10/25 01:35:29;;;;;;;40.15;27.85;;;;;;;10.61;100;95438.95;;;;
2019/10/25 01:36:30;;;;;;;40.15;27.85;;;;;;;10.61;100;95438.95;;;;
2019/10/25 01:37:32;;;;;;;40.15;27.85;;;;;;;10.61;100;95438.95;;;;
2019/10/25 01:38:33;;;;;;;40.15;27.85;;;;;;;10.61;100;95438.95;;;;
2019/10/25 01:39:34;;;;;;;40.15;27.85;;;;;;;10.61;100;95438.95;;;;
2019/10/25 01:40:35;;;;;;;40.15;27.85;;;;;;;10.61;100;95438.95;;;;
2019/10/25 01:41:36;;;;;;;40.15;27.85;;;;;;;10.61;100;95438.95;;;;
2019/10/25 01:42:38;;;;;;;40.15;27.85;;;;;;;10.61;100;95438.95;;;;
2019/10/25 01:43:39;;;;;;;37.4;24.75;;;;;;;10.82;100;95442.44;;;;
2019/10/25 01:44:40;;;;;;;37.4;24.75;;;;;;;10.82;100;95442.44;;;;
2019/10/25 01:45:42;;;;;;;37.4;24.75;;;;;;;10.82;100;95442.44;;;;
2019/10/25 01:46:43;;;;;;;37.4;24.75;;;;;;;10.82;100;95442.44;;;;
2019/10/25 01:47:44;;;;;;;37.4;24.75;;;;;;;10.82;100;95442.44;;;;
2019/10/25 01:48:45;;;;;;;37.4;24.75;;;;;;;10.82;100;95442.44;;;;
2019/10/25 01:49:46;;;;;;;37.4;24.75;;;;;;;10.82;100;95442.44;;;;
2019/10/25 01:50:47;;;;;;;37.4;24.75;;;;;;;10.82;100;95442.44;;;;
2019/10/25 01:51:48;;;;;;;37.4;24.75;;;;;;;10.82;100;95442.44;;;;
2019/10/25 01:52:50;;;;;;;37.4;24.75;;;;;;;10.82;100;95442.44;;;;
2019/10/25 01:53:51;;;;;;;34.05001;24.2;;;;;;;10.95;100;95448.97;;;;
2019/10/25 01:54:53;;;;;;;34.05001;24.2;;;;;;;10.95;100;95448.97;;;;
2019/10/25 01:55:54;;;;;;;34.05001;24.2;;;;;;;10.95;100;95448.97;;;;
2019/10/25 01:56:55;;;;;;;34.05001;24.2;;;;;;;10.95;100;95448.97;;;;
2019/10/25 01:57:56;;;;;;;34.05001;24.2;;;;;;;10.95;100;95448.97;;;;
2019/10/25 01:58:58;;;;;;;34.05001;24.2;;;;;;;10.95;100;95448.97;;;;
2019/10/25 01:59:59;;;;;;;34.05001;24.2;;;;;;;10.95;100;95448.97;;;;
2019/10/25 02:01:00;;;;;;;34.05001;24.2;;;;;;;10.95;100;95448.97;;;;
2019/10/25 02:02:01;;;;;;;34.05001;24.2;;;;;;;10.95;100;95448.97;;;;
2019/10/25 02:03:02;;;;;;;34.05001;24.2;;;;;;;10.95;100;95448.97;;;;
2019/10/25 02:04:03;;;;;;;34.05001;24.2;;;;;;;10.95;100;95448.97;;;;
2019/10/25 02:05:05;;;;;;;32.25;23.74999;;;;;;;11.12;100;95460.33;;;;
2019/10/25 02:06:06;;;;;;;32.25;23.74999;;;;;;;11.12;100;95460.33;;;;
2019/10/25 02:07:08;;;;;;;32.25;23.74999;;;;;;;11.12;100;95460.33;;;;
2019/10/25 02:08:09;;;;;;;32.25;23.74999;;;;;;;11.12;100;95460.33;;;;
2019/10/25 02:09:10;;;;;;;32.25;23.74999;;;;;;;11.12;100;95460.33;;;;
2019/10/25 02:10:12;;;;;;;32.25;23.74999;;;;;;;11.12;100;95460.33;;;;
2019/10/25 02:11:13;;;;;;;32.25;23.74999;;;;;;;11.12;100;95460.33;;;;
2019/10/25 02:12:14;;;;;;;32.25;23.74999;;;;;;;11.12;100;95460.33;;;;
2019/10/25 02:13:15;;;;;;;32.25;23.74999;;;;;;;11.12;100;95460.33;;;;
2019/10/25 02:14:17;;;;;;;32.25;23.74999;;;;;;;11.12;100;95460.33;;;;
2019/10/25 02:15:18;;;;;;;29.65;22.05;;;;;;;11.19;100;95469.94;;;;
2019/10/25 02:16:39;;;;;;;29.65;22.05;;;;;;;11.19;100;95469.94;;;;
2019/10/25 02:17:40;;;;;;;29.65;22.05;;;;;;;11.19;100;95469.94;;;;
2019/10/25 02:18:41;;;;;;;29.65;22.05;;;;;;;11.19;100;95469.94;;;;
2019/10/25 02:19:42;;;;;;;29.65;22.05;;;;;;;11.19;100;95469.94;;;;
2019/10/25 02:20:43;;;;;;;29.65;22.05;;;;;;;11.19;100;95469.94;;;;
2019/10/25 02:21:45;;;;;;;29.65;22.05;;;;;;;11.19;100;95469.94;;;;
2019/10/25 02:22:46;;;;;;;29.65;22.05;;;;;;;11.19;100;95469.94;;;;
2019/10/25 02:23:47;;;;;;;29.65;22.05;;;;;;;11.19;100;95469.94;;;;
2019/10/25 02:24:48;;;;;;;29.65;22.05;;;;;;;11.19;100;95469.94;;;;
2019/10/25 02:25:49;;;;;;;32.10001;23.65;;;;;;;11.34;100;95481.12;;;;
2019/10/25 02:26:51;;;;;;;32.10001;23.65;;;;;;;11.34;100;95481.12;;;;
2019/10/25 02:27:52;;;;;;;32.10001;23.65;;;;;;;11.34;100;95481.12;;;;
2019/10/25 02:28:54;;;;;;;32.10001;23.65;;;;;;;11.34;100;95481.12;;;;
2019/10/25 02:29:55;;;;;;;32.10001;23.65;;;;;;;11.34;100;95481.12;;;;
2019/10/25 02:30:56;;;;;;;32.10001;23.65;;;;;;;11.34;100;95481.12;;;;
2019/10/25 02:31:57;;;;;;;32.10001;23.65;;;;;;;11.34;100;95481.12;;;;
2019/10/25 02:32:59;;;;;;;32.10001;23.65;;;;;;;11.34;100;95481.12;;;;
2019/10/25 02:34:00;;;;;;;32.10001;23.65;;;;;;;11.34;100;95481.12;;;;
2019/10/25 02:35:01;;;;;;;32.10001;23.65;;;;;;;11.34;100;95481.12;;;;
2019/10/25 02:36:03;;;;;;;32.10001;23.65;;;;;;;11.34;100;95481.12;;;;
2019/10/25 02:37:04;;;;;;;29.4;22.45;;;;;;;11.39;100;95479.05;;;;
2019/10/25 02:38:05;;;;;;;29.4;22.45;;;;;;;11.39;100;95479.05;;;;
2019/10/25 02:39:06;;;;;;;29.4;22.45;;;;;;;11.39;100;95479.05;;;;
2019/10/25 02:40:08;;;;;;;29.4;22.45;;;;;;;11.39;100;95479.05;;;;
2019/10/25 02:41:09;;;;;;;29.4;22.45;;;;;;;11.39;100;95479.05;;;;
2019/10/25 02:42:10;;;;;;;29.4;22.45;;;;;;;11.39;100;95479.05;;;;
2019/10/25 02:43:13;;;;;;;29.4;22.45;;;;;;;11.39;100;95479.05;;;;
2019/10/25 02:44:18;;;;;;;29.4;22.45;;;;;;;11.39;100;95479.05;;;;
2019/10/25 02:45:19;;;;;;;29.4;22.45;;;;;;;11.39;100;95479.05;;;;
2019/10/25 02:46:20;;;;;;;29.4;22.45;;;;;;;11.39;100;95479.05;;;;
2019/10/25 02:47:23;;;;;;;29.59999;21.55;;;;;;;11.49;100;95479.16;;;;
2019/10/25 02:48:28;;;;;;;29.59999;21.55;;;;;;;11.49;100;95479.16;;;;
2019/10/25 02:49:31;;;;;;;29.59999;21.55;;;;;;;11.49;100;95479.16;;;;
2019/10/25 02:50:38;;;;;;;29.59999;21.55;;;;;;;11.49;100;95479.16;;;;
2019/10/25 02:51:39;;;;;;;29.59999;21.55;;;;;;;11.49;100;95479.16;;;;
2019/10/25 02:52:43;;;;;;;29.59999;21.55;;;;;;;11.49;100;95479.16;;;;
2019/10/25 02:53:45;;;;;;;29.59999;21.55;;;;;;;11.49;100;95479.16;;;;
2019/10/25 02:54:55;;;;;;;29.59999;21.55;;;;;;;11.49;100;95479.16;;;;
2019/10/25 02:55:56;;;;;;;29.59999;21.55;;;;;;;11.49;100;95479.16;;;;
2019/10/25 02:56:59;;;;;;;29.59999;21.55;;;;;;;11.49;100;95479.16;;;;
2019/10/25 02:58:01;;;;;;;27.25;20.45;;;;;;;11.5;100;95484.97;;;;
2019/10/25 02:59:02;;;;;;;27.25;20.45;;;;;;;11.5;100;95484.97;;;;
2019/10/25 03:00:03;;;;;;;27.25;20.45;;;;;;;11.5;100;95484.97;;;;
2019/10/25 03:01:06;;;;;;;27.25;20.45;;;;;;;11.5;100;95484.97;;;;
2019/10/25 03:02:08;;;;;;;27.25;20.45;;;;;;;11.5;100;95484.97;;;;
2019/10/25 03:03:09;;;;;;;27.25;20.45;;;;;;;11.5;100;95484.97;;;;
2019/10/25 03:04:10;;;;;;;27.25;20.45;;;;;;;11.5;100;95484.97;;;;
2019/10/25 03:05:11;;;;;;;27.25;20.45;;;;;;;11.5;100;95484.97;;;;
2019/10/25 03:07:16;;;;;;;27.25;20.45;;;;;;;11.5;100;95484.97;;;;
2019/10/25 03:08:17;;;;;;;23.95;19.5;;;;;;;11.54;100;95486.99;;;;
2019/10/25 03:09:18;;;;;;;23.95;19.5;;;;;;;11.54;100;95486.99;;;;
2019/10/25 03:10:20;;;;;;;23.95;19.5;;;;;;;11.54;100;95486.99;;;;
2019/10/25 03:11:21;;;;;;;23.95;19.5;;;;;;;11.54;100;95486.99;;;;
2019/10/25 03:12:23;;;;;;;23.95;19.5;;;;;;;11.54;100;95486.99;;;;
2019/10/25 03:13:24;;;;;;;23.95;19.5;;;;;;;11.54;100;95486.99;;;;
2019/10/25 03:14:25;;;;;;;23.95;19.5;;;;;;;11.54;100;95486.99;;;;
2019/10/25 03:15:27;;;;;;;23.95;19.5;;;;;;;11.54;100;95486.99;;;;
2019/10/25 03:16:28;;;;;;;23.95;19.5;;;;;;;11.54;100;95486.99;;;;
2019/10/25 03:17:29;;;;;;;23.95;19.5;;;;;;;11.54;100;95486.99;;;;
2019/10/25 03:18:30;;;;;;;23.95;19.5;;;;;;;11.54;100;95486.99;;;;
2019/10/25 03:19:31;;;;;;;25.25;18.6;;;;;;;11.56;100;95514.62;;;;
2019/10/25 03:20:33;;;;;;;25.25;18.6;;;;;;;11.56;100;95514.62;;;;
2019/10/25 03:21:34;;;;;;;25.25;18.6;;;;;;;11.56;100;95514.62;;;;
2019/10/25 03:22:35;;;;;;;25.25;18.6;;;;;;;11.56;100;95514.62;;;;
2019/10/25 03:23:36;;;;;;;25.25;18.6;;;;;;;11.56;100;95514.62;;;;
2019/10/25 03:24:39;;;;;;;25.25;18.6;;;;;;;11.56;100;95514.62;;;;
2019/10/25 03:25:40;;;;;;;25.25;18.6;;;;;;;11.56;100;95514.62;;;;
2019/10/25 03:26:41;;;;;;;25.25;18.6;;;;;;;11.56;100;95514.62;;;;
2019/10/25 03:27:47;;;;;;;25.25;18.6;;;;;;;11.56;100;95514.62;;;;
2019/10/25 03:28:51;;;;;;;25.25;18.6;;;;;;;11.56;100;95514.62;;;;
2019/10/25 03:30:05;;;;;;;24.1;19.25;;;;;;;11.63;100;95522.08;;;;
2019/10/25 03:36:21;;;;;;;24.1;19.25;;;;;;;11.63;100;95522.08;;;;
2019/10/25 03:37:37;;;;;;;24.1;19.25;;;;;;;11.63;100;95522.08;;;;
2019/10/25 03:38:40;;;;;;;24.1;19.25;;;;;;;11.63;100;95522.08;;;;
2019/10/25 03:40:13;;;;;;;26.65;18.85;;;;;;;11.64;100;95527.35;;;;
2019/10/25 03:42:18;;;;;;;26.65;18.85;;;;;;;11.64;100;95527.35;;;;
2019/10/25 03:43:19;;;;;;;26.65;18.85;;;;;;;11.64;100;95527.35;;;;
2019/10/25 03:44:20;;;;;;;26.65;18.85;;;;;;;11.64;100;95527.35;;;;
2019/10/25 03:45:23;;;;;;;26.65;18.85;;;;;;;11.64;100;95527.35;;;;
2019/10/25 03:46:24;;;;;;;26.65;18.85;;;;;;;11.64;100;95527.35;;;;
2019/10/25 03:47:26;;;;;;;26.65;18.85;;;;;;;11.64;100;95527.35;;;;
2019/10/25 03:48:31;;;;;;;26.65;18.85;;;;;;;11.64;100;95527.35;;;;
2019/10/25 03:49:41;;;;;;;26.65;18.85;;;;;;;11.64;100;95527.35;;;;
2019/10/25 03:50:44;;;;;;;25.05;18.45;;;;;;;11.69;100;95527.11;;;;
2019/10/25 03:51:45;;;;;;;25.05;18.45;;;;;;;11.69;100;95527.11;;;;
2019/10/25 03:52:48;;;;;;;25.05;18.45;;;;;;;11.69;100;95527.11;;;;
2019/10/25 03:53:50;;;;;;;25.05;18.45;;;;;;;11.69;100;95527.11;;;;
2019/10/25 03:54:52;;;;;;;25.05;18.45;;;;;;;11.69;100;95527.11;;;;
2019/10/25 03:55:53;;;;;;;25.05;18.45;;;;;;;11.69;100;95527.11;;;;
2019/10/25 03:56:54;;;;;;;25.05;18.45;;;;;;;11.69;100;95527.11;;;;
2019/10/25 03:57:55;;;;;;;25.05;18.45;;;;;;;11.69;100;95527.11;;;;
2019/10/25 03:58:58;;;;;;;25.05;18.45;;;;;;;11.69;100;95527.11;;;;
2019/10/25 03:59:59;;;;;;;25.05;18.45;;;;;;;11.69;100;95527.11;;;;
2019/10/25 04:01:00;;;;;;;25.05;18.45;;;;;;;11.69;100;95527.11;;;;
2019/10/25 04:02:01;;;;;;;26.55;19.25;;;;;;;11.66;100;95552.73;;;;
2019/10/25 04:03:04;;;;;;;26.55;19.25;;;;;;;11.66;100;95552.73;;;;
2019/10/25 04:04:05;;;;;;;26.55;19.25;;;;;;;11.66;100;95552.73;;;;
2019/10/25 04:05:07;;;;;;;26.55;19.25;;;;;;;11.66;100;95552.73;;;;
2019/10/25 04:06:08;;;;;;;26.55;19.25;;;;;;;11.66;100;95552.73;;;;
2019/10/25 04:07:10;;;;;;;26.55;19.25;;;;;;;11.66;100;95552.73;;;;
2019/10/25 04:08:13;;;;;;;26.55;19.25;;;;;;;11.66;100;95552.73;;;;
2019/10/25 04:09:17;;;;;;;26.55;19.25;;;;;;;11.66;100;95552.73;;;;
2019/10/25 04:10:20;;;;;;;26.55;19.25;;;;;;;11.66;100;95552.73;;;;
2019/10/25 04:11:22;;;;;;;26.55;19.25;;;;;;;11.66;100;95552.73;;;;
2019/10/25 04:12:24;;;;;;;24.55;18.85;;;;;;;11.73;100;95565.73;;;;
2019/10/25 04:13:25;;;;;;;24.55;18.85;;;;;;;11.73;100;95565.73;;;;
2019/10/25 04:14:26;;;;;;;24.55;18.85;;;;;;;11.73;100;95565.73;;;;
2019/10/25 04:15:27;;;;;;;24.55;18.85;;;;;;;11.73;100;95565.73;;;;
2019/10/25 04:16:28;;;;;;;24.55;18.85;;;;;;;11.73;100;95565.73;;;;
2019/10/25 04:17:30;;;;;;;24.55;18.85;;;;;;;11.73;100;95565.73;;;;
2019/10/25 04:18:31;;;;;;;24.55;18.85;;;;;;;11.73;100;95565.73;;;;
2019/10/25 04:19:32;;;;;;;24.55;18.85;;;;;;;11.73;100;95565.73;;;;
2019/10/25 04:20:33;;;;;;;24.55;18.85;;;;;;;11.73;100;95565.73;;;;
2019/10/25 04:21:34;;;;;;;24.55;18.85;;;;;;;11.73;100;95565.73;;;;
2019/10/25 04:22:36;;;;;;;24.6;18;;;;;;;11.74;100;95575.9;;;;
2019/10/25 04:23:37;;;;;;;24.6;18;;;;;;;11.74;100;95575.9;;;;
2019/10/25 04:24:38;;;;;;;24.6;18;;;;;;;11.74;100;95575.9;;;;
2019/10/25 04:25:39;;;;;;;24.6;18;;;;;;;11.74;100;95575.9;;;;
2019/10/25 04:26:40;;;;;;;24.6;18;;;;;;;11.74;100;95575.9;;;;
2019/10/25 04:27:42;;;;;;;24.6;18;;;;;;;11.74;100;95575.9;;;;
2019/10/25 04:28:43;;;;;;;24.6;18;;;;;;;11.74;100;95575.9;;;;
2019/10/25 04:29:44;;;;;;;24.6;18;;;;;;;11.74;100;95575.9;;;;
2019/10/25 04:30:45;;;;;;;24.6;18;;;;;;;11.74;100;95575.9;;;;
2019/10/25 04:31:48;;;;;;;24.6;18;;;;;;;11.74;100;95575.9;;;;
2019/10/25 04:32:58;;;;;;;24.6;18;;;;;;;11.74;100;95575.9;;;;
2019/10/25 04:33:59;;;;;;;21.3;17.25;;;;;;;11.85;100;95591.31;;;;
2019/10/25 04:35:00;;;;;;;21.3;17.25;;;;;;;11.85;100;95591.31;;;;
2019/10/25 04:36:01;;;;;;;21.3;17.25;;;;;;;11.85;100;95591.31;;;;
2019/10/25 04:37:03;;;;;;;21.3;17.25;;;;;;;11.85;100;95591.31;;;;
2019/10/25 04:38:04;;;;;;;21.3;17.25;;;;;;;11.85;100;95591.31;;;;
2019/10/25 04:39:05;;;;;;;21.3;17.25;;;;;;;11.85;100;95591.31;;;;
2019/10/25 04:40:06;;;;;;;21.3;17.25;;;;;;;11.85;100;95591.31;;;;
2019/10/25 04:41:08;;;;;;;21.3;17.25;;;;;;;11.85;100;95591.31;;;;
2019/10/25 04:42:10;;;;;;;21.3;17.25;;;;;;;11.85;100;95591.31;;;;
2019/10/25 04:43:11;;;;;;;21.3;17.25;;;;;;;11.85;100;95591.31;;;;
2019/10/25 04:44:12;;;;;;;19.15;15.5;;;;;;;11.9;100;95612.13;;;;
2019/10/25 04:45:13;;;;;;;19.15;15.5;;;;;;;11.9;100;95612.13;;;;
2019/10/25 04:46:15;;;;;;;19.15;15.5;;;;;;;11.9;100;95612.13;;;;
2019/10/25 04:47:16;;;;;;;19.15;15.5;;;;;;;11.9;100;95612.13;;;;
2019/10/25 04:48:17;;;;;;;19.15;15.5;;;;;;;11.9;100;95612.13;;;;
2019/10/25 04:49:18;;;;;;;19.15;15.5;;;;;;;11.9;100;95612.13;;;;
2019/10/25 04:50:20;;;;;;;19.15;15.5;;;;;;;11.9;100;95612.13;;;;
2019/10/25 04:51:21;;;;;;;19.15;15.5;;;;;;;11.9;100;95612.13;;;;
2019/10/25 04:52:27;;;;;;;19.15;15.5;;;;;;;11.9;100;95612.13;;;;
2019/10/25 04:53:30;;;;;;;19.15;15.5;;;;;;;11.9;100;95612.13;;;;
2019/10/25 04:54:34;;;;;;;19.55;14.8;;;;;;;12;100;95619.67;;;;
2019/10/25 04:55:38;;;;;;;19.55;14.8;;;;;;;12;100;95619.67;;;;
2019/10/25 04:56:39;;;;;;;19.55;14.8;;;;;;;12;100;95619.67;;;;
2019/10/25 04:57:40;;;;;;;19.55;14.8;;;;;;;12;100;95619.67;;;;
2019/10/25 04:58:42;;;;;;;19.55;14.8;;;;;;;12;100;95619.67;;;;
2019/10/25 04:59:43;;;;;;;19.55;14.8;;;;;;;12;100;95619.67;;;;
2019/10/25 05:00:44;;;;;;;19.55;14.8;;;;;;;12;100;95619.67;;;;
2019/10/25 05:01:45;;;;;;;19.55;14.8;;;;;;;12;100;95619.67;;;;
2019/10/25 05:02:46;;;;;;;19.55;14.8;;;;;;;12;100;95619.67;;;;
2019/10/25 05:03:48;;;;;;;19.55;14.8;;;;;;;12;100;95619.67;;;;
2019/10/25 05:04:49;;;;;;;19.55;14.8;;;;;;;12;100;95619.67;;;;
2019/10/25 05:05:50;;;;;;;18.7;13.6;;;;;;;12.05;100;95626.95;;;;
2019/10/25 05:06:51;;;;;;;18.7;13.6;;;;;;;12.05;100;95626.95;;;;
2019/10/25 05:07:52;;;;;;;18.7;13.6;;;;;;;12.05;100;95626.95;;;;
2019/10/25 05:08:53;;;;;;;18.7;13.6;;;;;;;12.05;100;95626.95;;;;
2019/10/25 05:09:55;;;;;;;18.7;13.6;;;;;;;12.05;100;95626.95;;;;
2019/10/25 05:10:56;;;;;;;18.7;13.6;;;;;;;12.05;100;95626.95;;;;
2019/10/25 05:11:57;;;;;;;18.7;13.6;;;;;;;12.05;100;95626.95;;;;
2019/10/25 05:12:58;;;;;;;18.7;13.6;;;;;;;12.05;100;95626.95;;;;
2019/10/25 05:13:59;;;;;;;18.7;13.6;;;;;;;12.05;100;95626.95;;;;
2019/10/25 05:15:00;;;;;;;18.7;13.6;;;;;;;12.05;100;95626.95;;;;
2019/10/25 05:16:02;;;;;;;17.35;12.55;;;;;;;12.16;100;95641.53;;;;
2019/10/25 05:17:03;;;;;;;17.35;12.55;;;;;;;12.16;100;95641.53;;;;
2019/10/25 05:18:04;;;;;;;17.35;12.55;;;;;;;12.16;100;95641.53;;;;
2019/10/25 05:19:05;;;;;;;17.35;12.55;;;;;;;12.16;100;95641.53;;;;
2019/10/25 05:20:06;;;;;;;17.35;12.55;;;;;;;12.16;100;95641.53;;;;
2019/10/25 05:21:08;;;;;;;17.35;12.55;;;;;;;12.16;100;95641.53;;;;
2019/10/25 05:22:09;;;;;;;17.35;12.55;;;;;;;12.16;100;95641.53;;;;
2019/10/25 05:23:10;;;;;;;17.35;12.55;;;;;;;12.16;100;95641.53;;;;
2019/10/25 05:24:11;;;;;;;17.35;12.55;;;;;;;12.16;100;95641.53;;;;
2019/10/25 05:25:13;;;;;;;17.35;12.55;;;;;;;12.16;100;95641.53;;;;
2019/10/25 05:26:14;;;;;;;17.4;12.45;;;;;;;12.16;100;95660.9;;;;
2019/10/25 05:27:15;;;;;;;17.4;12.45;;;;;;;12.16;100;95660.9;;;;
2019/10/25 05:28:16;;;;;;;17.4;12.45;;;;;;;12.16;100;95660.9;;;;
2019/10/25 05:29:17;;;;;;;17.4;12.45;;;;;;;12.16;100;95660.9;;;;
2019/10/25 05:30:18;;;;;;;17.4;12.45;;;;;;;12.16;100;95660.9;;;;
2019/10/25 05:31:19;;;;;;;17.4;12.45;;;;;;;12.16;100;95660.9;;;;
2019/10/25 05:32:21;;;;;;;17.4;12.45;;;;;;;12.16;100;95660.9;;;;
2019/10/25 05:33:22;;;;;;;17.4;12.45;;;;;;;12.16;100;95660.9;;;;
2019/10/25 05:34:23;;;;;;;17.4;12.45;;;;;;;12.16;100;95660.9;;;;
2019/10/25 05:35:24;;;;;;;17.4;12.45;;;;;;;12.16;100;95660.9;;;;
2019/10/25 05:36:25;;;;;;;17.4;12.45;;;;;;;12.16;100;95660.9;;;;
2019/10/25 05:37:26;;;;;;;15.35;12.6;;;;;;;12.21;100;95675.48;;;;
2019/10/25 05:38:27;;;;;;;15.35;12.6;;;;;;;12.21;100;95675.48;;;;
2019/10/25 05:39:28;;;;;;;15.35;12.6;;;;;;;12.21;100;95675.48;;;;
2019/10/25 05:40:30;;;;;;;15.35;12.6;;;;;;;12.21;100;95675.48;;;;
2019/10/25 05:41:31;;;;;;;15.35;12.6;;;;;;;12.21;100;95675.48;;;;
2019/10/25 05:42:32;;;;;;;15.35;12.6;;;;;;;12.21;100;95675.48;;;;
2019/10/25 05:43:33;;;;;;;15.35;12.6;;;;;;;12.21;100;95675.48;;;;
2019/10/25 05:44:34;;;;;;;15.35;12.6;;;;;;;12.21;100;95675.48;;;;
2019/10/25 05:45:36;;;;;;;15.35;12.6;;;;;;;12.21;100;95675.48;;;;
2019/10/25 05:46:37;;;;;;;15.35;12.6;;;;;;;12.21;100;95675.48;;;;
2019/10/25 05:47:38;;;;;;;15.4;12.1;;;;;;;12.18;100;95662.81;;;;
2019/10/25 05:48:39;;;;;;;15.4;12.1;;;;;;;12.18;100;95662.81;;;;
2019/10/25 05:49:40;;;;;;;15.4;12.1;;;;;;;12.18;100;95662.81;;;;
2019/10/25 05:50:41;;;;;;;15.4;12.1;;;;;;;12.18;100;95662.81;;;;
2019/10/25 05:51:43;;;;;;;15.4;12.1;;;;;;;12.18;100;95662.81;;;;
2019/10/25 05:52:44;;;;;;;15.4;12.1;;;;;;;12.18;100;95662.81;;;;
2019/10/25 05:53:45;;;;;;;15.4;12.1;;;;;;;12.18;100;95662.81;;;;
2019/10/25 05:54:46;;;;;;;15.4;12.1;;;;;;;12.18;100;95662.81;;;;
2019/10/25 05:55:47;;;;;;;15.4;12.1;;;;;;;12.18;100;95662.81;;;;
2019/10/25 05:56:48;;;;;;;15.4;12.1;;;;;;;12.18;100;95662.81;;;;
2019/10/25 05:57:49;;;;;;;15.4;12.1;;;;;;;12.18;100;95662.81;;;;
2019/10/25 05:58:51;;;;;;;15.4;12.1;;;;;;;12.18;100;95662.81;;;;
2019/10/25 05:59:52;;;;;;;15.4;12.1;;;;;;;12.18;100;95662.81;;;;
2019/10/25 06:00:53;;;;;;;15.4;12.1;;;;;;;12.18;100;95662.81;;;;
2019/10/25 06:01:54;;;;;;;15.4;12.1;;;;;;;12.18;100;95662.81;;;;
2019/10/25 06:02:55;;;;;;;15.4;12.1;;;;;;;12.18;100;95662.81;;;;
2019/10/25 06:03:56;;;;;;;15.4;12.1;;;;;;;12.18;100;95662.81;;;;
2019/10/25 06:04:57;;;;;;;15.4;12.1;;;;;;;12.18;100;95662.81;;;;
2019/10/25 06:05:59;;;;;;;15.4;12.1;;;;;;;12.18;100;95662.81;;;;
2019/10/25 06:07:00;;;;;;;15.4;12.1;;;;;;;12.18;100;95662.81;;;;
2019/10/25 06:08:01;;;;;;;15.4;12.1;;;;;;;12.18;100;95662.81;;;;
2019/10/25 06:09:03;;;;;;;17.05;12.2;;;;;;;12.27;100;95724.08;;;;
2019/10/25 06:10:05;;;;;;;17.05;12.2;;;;;;;12.27;100;95724.08;;;;
2019/10/25 06:11:07;;;;;;;17.05;12.2;;;;;;;12.27;100;95724.08;;;;
2019/10/25 06:12:08;;;;;;;17.05;12.2;;;;;;;12.27;100;95724.08;;;;
2019/10/25 06:13:09;;;;;;;17.05;12.2;;;;;;;12.27;100;95724.08;;;;
2019/10/25 06:14:11;;;;;;;17.05;12.2;;;;;;;12.27;100;95724.08;;;;
2019/10/25 06:15:12;;;;;;;17.05;12.2;;;;;;;12.27;100;95724.08;;;;
2019/10/25 06:16:15;;;;;;;17.05;12.2;;;;;;;12.27;100;95724.08;;;;